createdAt,value
2022-11-30T00:00:43.408Z,66.73
2022-11-30T00:03:28.127Z,66.69
2022-11-30T00:06:07.949Z,66.84
2022-11-30T00:08:42.990Z,66.80
2022-11-30T00:11:21.299Z,66.62
2022-11-30T00:13:53.168Z,66.66
2022-11-30T00:16:27.717Z,66.70
2022-11-30T00:19:01.483Z,66.74
2022-11-30T00:21:35.240Z,66.56
2022-11-30T00:24:09.475Z,66.60
2022-11-30T00:26:42.916Z,66.63
2022-11-30T00:29:16.459Z,66.78
2022-11-30T00:31:50.290Z,66.92
2022-11-30T00:34:23.733Z,67.16
2022-11-30T00:36:57.302Z,67.15
2022-11-30T00:39:35.490Z,67.04
2022-11-30T00:42:09.776Z,67.14
2022-11-30T00:44:44.338Z,67.23
2022-11-30T00:47:18.320Z,67.21
2022-11-30T00:49:51.879Z,67.22
2022-11-30T00:52:25.710Z,67.07
2022-11-30T00:55:03.674Z,66.73
2022-11-30T00:57:38.063Z,66.63
2022-11-30T01:00:14.163Z,66.78
2022-11-30T01:02:47.816Z,66.76
2022-11-30T01:05:21.345Z,66.89
2022-11-30T01:07:55.283Z,67.11
2022-11-30T01:10:28.903Z,67.19
2022-11-30T01:13:02.584Z,67.01
2022-11-30T01:15:39.865Z,66.87
2022-11-30T01:18:13.660Z,66.63
2022-11-30T01:20:47.260Z,66.68
2022-11-30T01:23:20.616Z,66.80
2022-11-30T01:25:59.121Z,66.93
2022-11-30T01:28:31.133Z,66.88
2022-11-30T01:31:07.351Z,67.04
2022-11-30T01:33:42.135Z,67.06
2022-11-30T01:36:17.797Z,67.04
2022-11-30T01:38:53.373Z,67.14
2022-11-30T01:41:28.579Z,67.09
2022-11-30T01:44:52.714Z,67.04
2022-11-30T01:47:30.498Z,67.08
2022-11-30T01:50:09.296Z,67.13
2022-11-30T01:52:45.520Z,67.12
2022-11-30T01:55:26.044Z,66.99
2022-11-30T01:58:03.806Z,66.89
2022-11-30T02:00:37.521Z,66.72
2022-11-30T02:03:26.197Z,66.73
2022-11-30T02:06:01.161Z,66.96
2022-11-30T02:08:35.845Z,67.12
2022-11-30T02:11:14.520Z,67.14
2022-11-30T02:13:57.565Z,67.05
2022-11-30T02:16:37.923Z,67.15
2022-11-30T02:19:43.471Z,67.01
2022-11-30T02:22:31.959Z,66.99
2022-11-30T02:25:08.959Z,67.10
2022-11-30T02:28:08.834Z,67.06
2022-11-30T02:30:48.925Z,66.94
2022-11-30T02:33:27.399Z,66.81
2022-11-30T02:36:03.726Z,66.68
2022-11-30T02:38:37.807Z,66.74
2022-11-30T02:41:11.755Z,66.63
2022-11-30T02:43:45.849Z,66.59
2022-11-30T02:46:24.876Z,66.92
2022-11-30T02:49:06.836Z,66.95
2022-11-30T02:51:43.026Z,66.93
2022-11-30T02:54:16.768Z,67.05
2022-11-30T02:56:50.406Z,67.19
2022-11-30T02:59:24.042Z,67.13
2022-11-30T03:01:57.858Z,67.10
2022-11-30T03:04:31.598Z,67.04
2022-11-30T03:07:05.518Z,66.90
2022-11-30T03:09:39.041Z,66.63
2022-11-30T03:12:12.546Z,66.68
2022-11-30T03:14:46.320Z,66.25
2022-11-30T03:17:20.327Z,66.44
2022-11-30T03:19:54.320Z,66.46
2022-11-30T03:22:28.076Z,66.38
2022-11-30T03:25:01.599Z,65.99
2022-11-30T03:27:34.915Z,65.95
2022-11-30T03:30:10.250Z,66.05
2022-11-30T03:32:44.160Z,66.29
2022-11-30T03:35:17.523Z,66.14
2022-11-30T03:37:51.268Z,66.25
2022-11-30T03:40:25.073Z,66.04
2022-11-30T03:42:58.754Z,66.03
2022-11-30T03:45:32.326Z,65.82
2022-11-30T03:48:05.887Z,65.75
2022-11-30T03:50:39.231Z,65.82
2022-11-30T03:53:12.652Z,66.00
2022-11-30T03:55:46.388Z,66.26
2022-11-30T03:58:19.942Z,66.37
2022-11-30T04:01:00.104Z,66.27
2022-11-30T04:03:34.444Z,66.28
2022-11-30T04:06:09.341Z,66.17
2022-11-30T04:08:43.281Z,66.12
2022-11-30T04:11:17.683Z,66.10
2022-11-30T04:13:51.277Z,66.15
2022-11-30T04:16:24.820Z,66.22
2022-11-30T04:18:58.174Z,66.28
2022-11-30T04:21:31.985Z,66.26
2022-11-30T04:24:05.960Z,66.32
2022-11-30T04:26:39.793Z,66.42
2022-11-30T04:29:13.360Z,66.38
2022-11-30T04:31:46.814Z,66.40
2022-11-30T04:34:20.532Z,66.15
2022-11-30T04:36:58.837Z,66.22
2022-11-30T04:39:36.959Z,66.16
2022-11-30T04:42:11.087Z,66.07
2022-11-30T04:44:44.700Z,66.05
2022-11-30T04:47:18.549Z,66.07
2022-11-30T04:49:51.875Z,66.16
2022-11-30T04:52:25.716Z,66.00
2022-11-30T04:54:59.594Z,66.16
2022-11-30T04:57:33.602Z,65.97
2022-11-30T05:00:08.787Z,65.98
2022-11-30T05:02:43.159Z,65.61
2022-11-30T05:05:19.650Z,65.57
2022-11-30T05:07:56.617Z,65.72
2022-11-30T05:10:30.634Z,65.63
2022-11-30T05:13:04.400Z,65.62
2022-11-30T05:15:37.894Z,65.55
2022-11-30T05:18:11.166Z,65.62
2022-11-30T05:20:48.588Z,65.66
2022-11-30T05:23:22.971Z,65.72
2022-11-30T05:25:56.535Z,65.69
2022-11-30T05:28:29.974Z,65.72
2022-11-30T05:31:07.567Z,65.56
2022-11-30T05:33:41.520Z,65.62
2022-11-30T05:36:14.931Z,65.75
2022-11-30T05:38:48.818Z,65.44
2022-11-30T05:41:22.750Z,65.24
2022-11-30T05:43:56.485Z,65.49
2022-11-30T05:46:29.932Z,65.39
2022-11-30T05:49:03.810Z,65.59
2022-11-30T05:51:37.878Z,65.57
2022-11-30T05:54:11.453Z,65.62
2022-11-30T05:56:47.020Z,65.61
2022-11-30T05:59:24.353Z,65.53
2022-11-30T06:01:58.438Z,65.46
2022-11-30T06:04:32.273Z,65.64
2022-11-30T06:07:05.899Z,65.72
2022-11-30T06:09:39.727Z,65.94
2022-11-30T06:12:13.878Z,66.09
2022-11-30T06:14:47.739Z,66.02
2022-11-30T06:17:21.402Z,65.77
2022-11-30T06:19:54.993Z,65.55
2022-11-30T06:22:28.769Z,65.66
2022-11-30T06:25:02.470Z,65.65
2022-11-30T06:27:36.352Z,65.42
2022-11-30T06:30:12.774Z,65.38
2022-11-30T06:32:50.329Z,65.56
2022-11-30T06:35:24.034Z,65.59
2022-11-30T06:37:58.433Z,65.38
2022-11-30T06:40:32.941Z,65.53
2022-11-30T06:43:06.929Z,65.59
2022-11-30T06:45:40.717Z,65.67
2022-11-30T06:48:14.861Z,65.64
2022-11-30T06:50:50.165Z,65.57
2022-11-30T06:53:23.810Z,65.39
2022-11-30T06:55:57.870Z,65.41
2022-11-30T06:58:31.730Z,65.28
2022-11-30T07:01:07.284Z,65.23
2022-11-30T07:03:41.045Z,65.44
2022-11-30T07:06:16.175Z,65.27
2022-11-30T07:08:50.366Z,65.36
2022-11-30T07:11:23.947Z,65.57
2022-11-30T07:13:57.323Z,65.73
2022-11-30T07:16:31.120Z,65.64
2022-11-30T07:19:04.546Z,65.57
2022-11-30T07:21:38.346Z,65.71
2022-11-30T07:24:30.840Z,65.73
2022-11-30T07:27:05.609Z,65.46
2022-11-30T07:29:39.366Z,65.59
2022-11-30T07:32:12.952Z,65.73
2022-11-30T07:34:46.901Z,65.84
2022-11-30T07:37:20.344Z,65.88
2022-11-30T07:39:53.749Z,65.52
2022-11-30T07:42:27.452Z,65.54
2022-11-30T07:45:01.082Z,65.46
2022-11-30T07:47:36.325Z,65.35
2022-11-30T07:50:11.747Z,65.55
2022-11-30T07:52:45.354Z,65.47
2022-11-30T07:55:20.490Z,65.67
2022-11-30T07:57:54.641Z,65.54
2022-11-30T08:00:28.216Z,65.45
2022-11-30T08:03:01.948Z,65.44
2022-11-30T08:05:35.767Z,65.38
2022-11-30T08:08:09.288Z,65.36
2022-11-30T08:10:42.819Z,65.51
2022-11-30T08:13:16.040Z,65.82
2022-11-30T08:15:49.754Z,65.39
2022-11-30T08:18:23.448Z,65.26
2022-11-30T08:21:03.139Z,65.18
2022-11-30T08:23:38.941Z,65.68
2022-11-30T08:26:15.162Z,65.76
2022-11-30T08:28:50.338Z,65.93
2022-11-30T08:31:26.268Z,65.82
2022-11-30T08:34:01.572Z,65.55
2022-11-30T08:36:36.162Z,65.26
2022-11-30T08:39:13.824Z,65.51
2022-11-30T08:41:47.464Z,65.72
2022-11-30T08:44:21.133Z,65.76
2022-11-30T08:46:54.748Z,65.71
2022-11-30T08:49:28.634Z,65.70
2022-11-30T08:52:17.134Z,65.46
2022-11-30T08:54:52.487Z,65.48
2022-11-30T08:57:27.088Z,65.34
2022-11-30T09:00:00.457Z,65.34
2022-11-30T09:02:34.289Z,65.60
2022-11-30T09:05:08.891Z,65.50
2022-11-30T09:07:42.617Z,65.63
2022-11-30T09:10:16.470Z,65.52
2022-11-30T09:12:50.028Z,65.54
2022-11-30T09:15:24.005Z,65.56
2022-11-30T09:17:57.964Z,65.43
2022-11-30T09:20:32.045Z,65.57
2022-11-30T09:23:05.571Z,65.50
2022-11-30T09:25:38.967Z,65.47
2022-11-30T09:28:12.977Z,65.56
2022-11-30T09:30:46.320Z,65.69
2022-11-30T09:33:19.918Z,65.80
2022-11-30T09:36:00.713Z,65.79
2022-11-30T09:38:34.265Z,65.60
2022-11-30T09:41:16.933Z,65.70
2022-11-30T09:43:57.605Z,65.68
2022-11-30T09:46:38.566Z,66.02
2022-11-30T09:49:17.367Z,66.25
2022-11-30T09:51:52.785Z,66.31
2022-11-30T09:54:35.761Z,66.37
2022-11-30T09:57:27.339Z,66.55
2022-11-30T10:00:05.129Z,66.55
2022-11-30T10:02:47.399Z,66.57
2022-11-30T10:05:25.307Z,66.60
2022-11-30T10:08:25.759Z,66.60
2022-11-30T10:11:12.401Z,66.69
2022-11-30T10:13:59.173Z,66.56
2022-11-30T10:16:46.987Z,66.53
2022-11-30T10:19:29.750Z,66.65
2022-11-30T10:22:15.791Z,66.71
2022-11-30T10:25:01.132Z,66.85
2022-11-30T10:27:48.997Z,66.79
2022-11-30T10:30:24.844Z,66.84
2022-11-30T10:33:02.708Z,66.69
2022-11-30T10:35:42.448Z,66.55
2022-11-30T10:38:20.512Z,66.51
2022-11-30T10:40:59.479Z,66.74
2022-11-30T10:43:38.999Z,66.60
2022-11-30T10:46:23.351Z,66.78
2022-11-30T10:49:00.488Z,66.78
2022-11-30T10:51:36.288Z,66.83
2022-11-30T10:54:19.201Z,67.04
2022-11-30T10:56:52.819Z,67.04
2022-11-30T10:59:29.430Z,67.13
2022-11-30T11:02:03.667Z,67.28
2022-11-30T11:04:37.610Z,67.20
2022-11-30T11:07:16.195Z,67.23
2022-11-30T11:09:52.177Z,67.31
2022-11-30T11:12:31.266Z,67.23
2022-11-30T11:15:19.980Z,67.38
2022-11-30T11:17:54.691Z,67.47
2022-11-30T11:20:43.007Z,67.53
2022-11-30T11:23:22.726Z,67.66
2022-11-30T11:25:57.945Z,67.90
2022-11-30T11:28:32.385Z,67.90
2022-11-30T11:31:20.663Z,68.15
2022-11-30T11:33:58.073Z,68.07
2022-11-30T11:36:33.215Z,68.31
2022-11-30T11:39:26.536Z,68.32
2022-11-30T11:42:01.515Z,68.43
2022-11-30T11:44:35.252Z,68.46
2022-11-30T11:47:24.665Z,68.44
2022-11-30T11:50:50.236Z,68.56
2022-11-30T11:53:26.534Z,68.70
2022-11-30T11:56:04.414Z,68.71
2022-11-30T11:58:44.708Z,68.55
2022-11-30T12:01:40.717Z,68.78
2022-11-30T12:04:43.491Z,68.59
2022-11-30T12:07:30.232Z,68.51
2022-11-30T12:10:51.306Z,68.50
2022-11-30T12:13:24.751Z,68.39
2022-11-30T12:16:10.786Z,68.47
2022-11-30T12:18:52.263Z,68.54
2022-11-30T12:21:38.282Z,68.79
2022-11-30T12:24:38.278Z,68.80
2022-11-30T12:27:24.493Z,68.70
2022-11-30T12:30:10.498Z,68.60
2022-11-30T12:33:03.004Z,68.80
2022-11-30T12:35:45.688Z,68.90
2022-11-30T12:38:28.148Z,68.87
2022-11-30T12:41:09.623Z,68.94
2022-11-30T12:43:54.177Z,69.11
2022-11-30T12:46:37.241Z,68.98
2022-11-30T12:49:24.388Z,68.88
2022-11-30T12:52:04.743Z,68.93
2022-11-30T12:54:52.931Z,68.95
2022-11-30T12:57:35.534Z,68.98
2022-11-30T13:00:15.800Z,68.96
2022-11-30T13:03:16.637Z,68.75
2022-11-30T13:05:54.689Z,68.83
2022-11-30T13:08:33.258Z,68.99
2022-11-30T13:11:14.296Z,69.09
2022-11-30T13:13:54.737Z,69.06
2022-11-30T13:16:31.592Z,68.92
2022-11-30T13:19:12.997Z,69.05
2022-11-30T13:21:54.707Z,69.18
2022-11-30T13:24:34.880Z,69.08
2022-11-30T13:27:16.178Z,69.00
2022-11-30T13:30:08.543Z,69.03
2022-11-30T13:32:57.973Z,69.20
2022-11-30T13:35:54.350Z,68.91
2022-11-30T13:38:36.742Z,68.60
2022-11-30T13:41:12.381Z,68.68
2022-11-30T13:43:48.448Z,68.65
2022-11-30T13:46:24.109Z,68.47
2022-11-30T13:49:22.386Z,68.47
2022-11-30T13:52:21.527Z,68.52
2022-11-30T13:54:54.467Z,68.58
2022-11-30T13:58:07.349Z,68.70
2022-11-30T14:01:03.002Z,68.62
2022-11-30T14:03:38.822Z,68.58
2022-11-30T14:06:48.918Z,68.48
2022-11-30T14:10:09.004Z,68.22
2022-11-30T14:13:05.651Z,68.11
2022-11-30T14:15:55.613Z,68.15
2022-11-30T14:18:41.327Z,68.19
2022-11-30T14:21:37.880Z,68.19
2022-11-30T14:24:19.890Z,68.18
2022-11-30T14:26:54.613Z,68.15
2022-11-30T14:29:34.999Z,68.16
2022-11-30T14:32:17.605Z,68.29
2022-11-30T14:34:53.087Z,68.36
2022-11-30T14:37:29.445Z,68.35
2022-11-30T14:40:06.831Z,68.16
2022-11-30T14:42:48.787Z,68.06
2022-11-30T14:45:28.764Z,68.34
2022-11-30T14:48:14.386Z,68.41
2022-11-30T14:50:51.330Z,68.55
2022-11-30T14:53:34.906Z,68.42
2022-11-30T14:56:18.042Z,68.30
2022-11-30T14:58:57.652Z,68.29
2022-11-30T15:01:33.665Z,68.43
2022-11-30T15:04:13.421Z,68.49
2022-11-30T15:06:47.367Z,68.41
2022-11-30T15:09:23.915Z,68.30
2022-11-30T15:11:57.892Z,68.24
2022-11-30T15:14:32.467Z,68.08
2022-11-30T15:17:15.579Z,68.02
2022-11-30T15:19:50.596Z,68.07
2022-11-30T15:22:26.561Z,67.93
2022-11-30T15:24:59.962Z,68.02
2022-11-30T15:27:34.043Z,68.09
2022-11-30T15:30:09.552Z,68.00
2022-11-30T15:32:45.541Z,68.01
2022-11-30T15:35:43.698Z,67.75
2022-11-30T15:38:26.350Z,67.87
2022-11-30T15:41:08.774Z,68.05
2022-11-30T15:43:43.499Z,67.96
2022-11-30T15:46:34.251Z,67.81
2022-11-30T15:49:26.545Z,68.09
2022-11-30T15:52:18.846Z,68.06
2022-11-30T15:54:55.478Z,68.07
2022-11-30T15:57:50.718Z,68.02
2022-11-30T16:00:26.233Z,67.99
2022-11-30T16:03:13.100Z,68.12
2022-11-30T16:05:59.154Z,68.13
2022-11-30T16:08:33.869Z,68.13
2022-11-30T16:11:08.702Z,68.20
2022-11-30T16:13:43.878Z,67.99
2022-11-30T16:16:22.499Z,68.05
2022-11-30T16:18:56.919Z,68.25
2022-11-30T16:21:30.749Z,68.29
2022-11-30T16:24:05.348Z,68.11
2022-11-30T16:26:54.079Z,68.12
2022-11-30T16:29:30.830Z,68.04
2022-11-30T16:32:05.533Z,68.00
2022-11-30T16:34:39.928Z,68.10
2022-11-30T16:37:15.634Z,68.20
2022-11-30T16:39:49.493Z,68.01
2022-11-30T16:42:23.438Z,68.22
2022-11-30T16:44:57.419Z,68.16
2022-11-30T16:47:32.048Z,68.28
2022-11-30T16:50:10.848Z,68.46
2022-11-30T16:52:45.910Z,68.37
2022-11-30T16:55:21.826Z,68.30
2022-11-30T16:57:57.033Z,68.25
2022-11-30T17:00:31.425Z,68.26
2022-11-30T17:03:09.746Z,68.18
2022-11-30T17:05:44.017Z,68.22
2022-11-30T17:08:17.863Z,68.23
2022-11-30T17:10:55.103Z,68.12
2022-11-30T17:13:29.978Z,67.89
2022-11-30T17:16:04.428Z,68.04
2022-11-30T17:18:40.631Z,68.21
2022-11-30T17:21:18.360Z,68.32
2022-11-30T17:23:53.372Z,68.23
2022-11-30T17:26:27.977Z,68.28
2022-11-30T17:29:02.427Z,68.25
2022-11-30T17:31:37.482Z,68.26
2022-11-30T17:34:12.075Z,68.27
2022-11-30T17:36:47.021Z,68.09
2022-11-30T17:39:21.600Z,67.97
2022-11-30T17:41:55.498Z,67.92
2022-11-30T17:44:29.352Z,67.75
2022-11-30T17:47:05.245Z,67.72
2022-11-30T17:49:41.433Z,67.69
2022-11-30T17:52:15.224Z,67.75
2022-11-30T17:54:49.717Z,67.87
2022-11-30T17:57:24.827Z,67.64
2022-11-30T17:59:59.230Z,67.52
2022-11-30T18:02:33.941Z,67.61
2022-11-30T18:05:10.196Z,67.99
2022-11-30T18:07:44.363Z,67.76
2022-11-30T18:10:22.188Z,67.73
2022-11-30T18:13:05.031Z,67.82
2022-11-30T18:15:39.587Z,67.83
2022-11-30T18:18:14.421Z,67.64
2022-11-30T18:20:52.270Z,67.71
2022-11-30T18:23:26.710Z,67.92
2022-11-30T18:26:00.983Z,68.02
2022-11-30T18:28:35.863Z,67.75
2022-11-30T18:31:11.049Z,67.78
2022-11-30T18:33:45.099Z,67.43
2022-11-30T18:36:19.656Z,67.60
2022-11-30T18:38:59.298Z,67.40
2022-11-30T18:41:33.875Z,67.64
2022-11-30T18:44:08.301Z,67.59
2022-11-30T18:46:43.247Z,67.31
2022-11-30T18:49:22.143Z,67.37
2022-11-30T18:51:56.964Z,67.35
2022-11-30T18:54:33.231Z,67.22
2022-11-30T18:57:11.340Z,66.96
2022-11-30T18:59:49.811Z,67.21
2022-11-30T19:02:28.253Z,67.30
2022-11-30T19:05:06.805Z,67.11
2022-11-30T19:07:47.946Z,67.11
2022-11-30T19:10:26.702Z,67.03
2022-11-30T19:13:01.661Z,67.05
2022-11-30T19:15:41.701Z,67.30
2022-11-30T19:18:19.256Z,67.32
2022-11-30T19:21:02.857Z,67.23
2022-11-30T19:23:36.290Z,67.35
2022-11-30T19:26:12.178Z,67.38
2022-11-30T19:28:48.374Z,67.32
2022-11-30T19:31:24.459Z,66.98
2022-11-30T19:34:00.095Z,66.79
2022-11-30T19:36:35.524Z,66.95
2022-11-30T19:39:12.502Z,67.24
2022-11-30T19:41:48.736Z,67.20
2022-11-30T19:44:23.782Z,67.10
2022-11-30T19:47:09.760Z,67.03
2022-11-30T19:49:47.620Z,67.05
2022-11-30T19:52:22.247Z,66.97
2022-11-30T19:54:59.019Z,66.73
2022-11-30T19:57:38.215Z,66.71
2022-11-30T20:00:15.659Z,66.60
2022-11-30T20:02:54.341Z,66.77
2022-11-30T20:05:32.103Z,66.71
2022-11-30T20:08:07.312Z,66.57
2022-11-30T20:10:45.239Z,66.38
2022-11-30T20:13:20.057Z,66.26
2022-11-30T20:15:55.377Z,66.35
2022-11-30T20:18:30.059Z,66.34
2022-11-30T20:21:16.466Z,66.48
2022-11-30T20:23:53.860Z,66.39
2022-11-30T20:26:31.338Z,66.24
2022-11-30T20:29:08.058Z,66.16
2022-11-30T20:31:44.089Z,66.20
2022-11-30T20:34:19.576Z,66.25
2022-11-30T20:36:54.047Z,66.17
2022-11-30T20:39:29.140Z,66.15
2022-11-30T20:42:04.886Z,66.15
2022-11-30T20:44:42.053Z,66.24
2022-11-30T20:47:18.576Z,66.37
2022-11-30T20:49:53.183Z,66.28
2022-11-30T20:52:28.231Z,66.35
2022-11-30T20:55:02.690Z,66.10
2022-11-30T20:57:37.057Z,66.23
2022-11-30T21:00:14.108Z,66.42
2022-11-30T21:02:49.030Z,66.33
2022-11-30T21:05:23.831Z,66.28
2022-11-30T21:07:57.754Z,66.28
2022-11-30T21:10:33.808Z,66.21
2022-11-30T21:13:15.540Z,66.20
2022-11-30T21:15:50.043Z,66.33
2022-11-30T21:18:23.868Z,66.28
2022-11-30T21:21:05.125Z,66.37
2022-11-30T21:23:40.269Z,66.38
2022-11-30T21:26:19.648Z,66.36
2022-11-30T21:28:56.426Z,66.43
2022-11-30T21:31:30.931Z,66.42
2022-11-30T21:34:04.954Z,66.34
2022-11-30T21:36:38.484Z,66.25
2022-11-30T21:39:15.509Z,66.29
2022-11-30T21:41:49.653Z,66.19
2022-11-30T21:44:23.868Z,66.14
2022-11-30T21:46:57.477Z,66.09
2022-11-30T21:49:31.470Z,66.20
2022-11-30T21:52:05.317Z,66.25
2022-11-30T21:54:39.044Z,66.12
2022-11-30T21:57:12.392Z,66.15
2022-11-30T21:59:47.033Z,66.29
2022-11-30T22:02:20.829Z,66.19
2022-11-30T22:04:54.659Z,66.26
2022-11-30T22:07:33.239Z,66.17
2022-11-30T22:10:05.364Z,66.10
2022-11-30T22:12:38.795Z,66.04
2022-11-30T22:15:14.992Z,66.17
2022-11-30T22:17:49.012Z,66.11
2022-11-30T22:20:22.538Z,66.23
2022-11-30T22:22:55.911Z,66.45
2022-11-30T22:25:29.714Z,66.35
2022-11-30T22:28:03.445Z,66.30
2022-11-30T22:30:36.910Z,66.31
2022-11-30T22:33:11.398Z,66.40
2022-11-30T22:35:45.056Z,66.21
2022-11-30T22:38:18.536Z,66.25
2022-11-30T22:40:52.159Z,66.36
2022-11-30T22:43:25.787Z,66.31
2022-11-30T22:46:06.101Z,66.38
2022-11-30T22:48:40.673Z,66.40
2022-11-30T22:51:16.279Z,66.38
2022-11-30T22:53:50.236Z,66.37
2022-11-30T22:56:25.540Z,66.27
2022-11-30T22:59:01.124Z,66.16
2022-11-30T23:01:37.043Z,66.21
2022-11-30T23:04:12.361Z,66.18
2022-11-30T23:06:47.364Z,66.29
2022-11-30T23:09:22.942Z,66.44
2022-11-30T23:11:56.913Z,66.52
2022-11-30T23:14:30.606Z,66.47
2022-11-30T23:17:04.340Z,66.38
2022-11-30T23:19:37.957Z,66.47
2022-11-30T23:22:11.373Z,66.40
2022-11-30T23:24:45.078Z,66.38
2022-11-30T23:27:18.747Z,66.30
2022-11-30T23:29:52.419Z,66.38
2022-11-30T23:32:26.117Z,66.47
2022-11-30T23:34:59.681Z,66.59
2022-11-30T23:37:33.268Z,66.65
2022-11-30T23:40:08.937Z,66.63
2022-11-30T23:42:42.584Z,66.66
2022-11-30T23:45:16.511Z,66.57
2022-11-30T23:47:50.084Z,66.46
2022-11-30T23:50:23.438Z,66.40
2022-11-30T23:52:56.859Z,66.50
2022-11-30T23:55:30.804Z,66.64
2022-11-30T23:58:04.511Z,66.64
